sensor_id;sensor_type;location;lat;lon;timestamp;temperature;humidity
27559;DHT22;15002;52.028;5.670;2023-02-03T00:01:45;11.30;99.90
27559;DHT22;15002;52.028;5.670;2023-02-03T00:04:10;11.40;99.90
27559;DHT22;15002;52.028;5.670;2023-02-03T00:06:36;11.60;99.90
27559;DHT22;15002;52.028;5.670;2023-02-03T00:09:02;11.60;99.90
27559;DHT22;15002;52.028;5.670;2023-02-03T00:11:31;11.50;99.90
27559;DHT22;15002;52.028;5.670;2023-02-03T00:13:57;11.50;99.90
27559;DHT22;15002;52.028;5.670;2023-02-03T00:16:23;11.40;99.90
27559;DHT22;15002;52.028;5.670;2023-02-03T00:18:48;11.40;99.90
27559;DHT22;15002;52.028;5.670;2023-02-03T00:21:14;11.20;99.90
27559;DHT22;15002;52.028;5.670;2023-02-03T00:23:41;11.10;99.90
27559;DHT22;15002;52.028;5.670;2023-02-03T00:28:33;11.40;99.90
27559;DHT22;15002;52.028;5.670;2023-02-03T00:30:58;11.40;99.90
27559;DHT22;15002;52.028;5.670;2023-02-03T00:33:24;11.60;99.90
27559;DHT22;15002;52.028;5.670;2023-02-03T00:35:50;11.50;99.90
27559;DHT22;15002;52.028;5.670;2023-02-03T00:38:15;11.50;99.90
27559;DHT22;15002;52.028;5.670;2023-02-03T00:40:41;11.30;99.90
27559;DHT22;15002;52.028;5.670;2023-02-03T00:43:06;11.50;99.90
27559;DHT22;15002;52.028;5.670;2023-02-03T00:45:32;11.40;99.90
27559;DHT22;15002;52.028;5.670;2023-02-03T00:47:58;11.40;99.90
27559;DHT22;15002;52.028;5.670;2023-02-03T00:50:23;11.20;99.90
27559;DHT22;15002;52.028;5.670;2023-02-03T00:52:49;11.30;99.90
27559;DHT22;15002;52.028;5.670;2023-02-03T00:55:14;11.40;99.90
27559;DHT22;15002;52.028;5.670;2023-02-03T00:57:40;11.50;99.90
27559;DHT22;15002;52.028;5.670;2023-02-03T01:00:06;11.50;99.90
27559;DHT22;15002;52.028;5.670;2023-02-03T01:02:32;11.40;99.90
27559;DHT22;15002;52.028;5.670;2023-02-03T01:04:58;11.40;99.90
27559;DHT22;15002;52.028;5.670;2023-02-03T01:07:23;11.30;99.90
27559;DHT22;15002;52.028;5.670;2023-02-03T01:09:49;11.10;99.90
27559;DHT22;15002;52.028;5.670;2023-02-03T01:12:14;11.10;99.90
27559;DHT22;15002;52.028;5.670;2023-02-03T01:14:40;11.10;99.90
27559;DHT22;15002;52.028;5.670;2023-02-03T01:17:06;11.20;99.90
27559;DHT22;15002;52.028;5.670;2023-02-03T01:19:31;11.10;99.90
27559;DHT22;15002;52.028;5.670;2023-02-03T01:21:57;11.20;99.90
27559;DHT22;15002;52.028;5.670;2023-02-03T01:24:22;11.40;99.90
27559;DHT22;15002;52.028;5.670;2023-02-03T01:26:48;11.50;99.90
27559;DHT22;15002;52.028;5.670;2023-02-03T01:29:14;11.70;99.90
27559;DHT22;15002;52.028;5.670;2023-02-03T01:31:40;11.70;99.90
27559;DHT22;15002;52.028;5.670;2023-02-03T01:34:11;11.50;99.90
27559;DHT22;15002;52.028;5.670;2023-02-03T01:36:37;11.80;99.90
27559;DHT22;15002;52.028;5.670;2023-02-03T01:39:04;11.60;99.90
27559;DHT22;15002;52.028;5.670;2023-02-03T01:41:32;11.70;99.90
27559;DHT22;15002;52.028;5.670;2023-02-03T01:44:00;11.50;99.90
27559;DHT22;15002;52.028;5.670;2023-02-03T01:49:03;11.50;99.90
27559;DHT22;15002;52.028;5.670;2023-02-03T01:51:31;11.70;99.90
27559;DHT22;15002;52.028;5.670;2023-02-03T01:53:57;11.70;99.90
27559;DHT22;15002;52.028;5.670;2023-02-03T01:56:24;11.30;99.90
27559;DHT22;15002;52.028;5.670;2023-02-03T01:58:53;11.30;99.90
27559;DHT22;15002;52.028;5.670;2023-02-03T02:01:19;11.20;99.90
27559;DHT22;15002;52.028;5.670;2023-02-03T02:03:45;11.20;99.90
27559;DHT22;15002;52.028;5.670;2023-02-03T02:06:13;11.30;99.90
27559;DHT22;15002;52.028;5.670;2023-02-03T02:08:41;11.20;99.90
27559;DHT22;15002;52.028;5.670;2023-02-03T02:11:08;11.10;99.90
27559;DHT22;15002;52.028;5.670;2023-02-03T02:13:34;11.30;99.90
27559;DHT22;15002;52.028;5.670;2023-02-03T02:19:12;11.30;99.90
27559;DHT22;15002;52.028;5.670;2023-02-03T02:27:19;11.50;99.90
27559;DHT22;15002;52.028;5.670;2023-02-03T02:33:17;11.20;99.90
27559;DHT22;15002;52.028;5.670;2023-02-03T02:35:49;11.30;99.90
27559;DHT22;15002;52.028;5.670;2023-02-03T02:38:56;11.40;99.90
27559;DHT22;15002;52.028;5.670;2023-02-03T02:41:28;11.50;99.90
27559;DHT22;15002;52.028;5.670;2023-02-03T02:44:25;11.40;99.90
27559;DHT22;15002;52.028;5.670;2023-02-03T02:47:06;11.20;99.90
27559;DHT22;15002;52.028;5.670;2023-02-03T02:49:45;11.40;99.90
27559;DHT22;15002;52.028;5.670;2023-02-03T02:52:13;11.50;99.90
27559;DHT22;15002;52.028;5.670;2023-02-03T02:54:43;11.40;99.90
27559;DHT22;15002;52.028;5.670;2023-02-03T02:57:12;11.40;99.90
27559;DHT22;15002;52.028;5.670;2023-02-03T02:59:39;11.50;99.90
27559;DHT22;15002;52.028;5.670;2023-02-03T03:02:04;11.40;99.90
27559;DHT22;15002;52.028;5.670;2023-02-03T03:04:31;11.30;99.90
27559;DHT22;15002;52.028;5.670;2023-02-03T03:07:15;11.30;99.90
27559;DHT22;15002;52.028;5.670;2023-02-03T03:09:45;11.40;99.90
27559;DHT22;15002;52.028;5.670;2023-02-03T03:12:22;11.20;99.90
27559;DHT22;15002;52.028;5.670;2023-02-03T03:15:05;11.30;99.90
27559;DHT22;15002;52.028;5.670;2023-02-03T03:17:35;11.20;99.90
27559;DHT22;15002;52.028;5.670;2023-02-03T03:20:10;11.40;99.90
27559;DHT22;15002;52.028;5.670;2023-02-03T03:22:43;11.40;99.90
27559;DHT22;15002;52.028;5.670;2023-02-03T03:25:17;11.30;99.90
27559;DHT22;15002;52.028;5.670;2023-02-03T03:27:48;11.40;99.90
27559;DHT22;15002;52.028;5.670;2023-02-03T03:30:19;11.60;99.90
27559;DHT22;15002;52.028;5.670;2023-02-03T03:32:48;11.60;99.90
27559;DHT22;15002;52.028;5.670;2023-02-03T03:35:14;11.40;99.90
27559;DHT22;15002;52.028;5.670;2023-02-03T03:37:43;11.40;99.90
27559;DHT22;15002;52.028;5.670;2023-02-03T03:40:21;11.30;99.90
27559;DHT22;15002;52.028;5.670;2023-02-03T03:43:15;11.20;99.90
27559;DHT22;15002;52.028;5.670;2023-02-03T03:46:06;11.30;99.90
27559;DHT22;15002;52.028;5.670;2023-02-03T03:51:51;11.40;99.90
27559;DHT22;15002;52.028;5.670;2023-02-03T03:54:21;11.50;99.90
27559;DHT22;15002;52.028;5.670;2023-02-03T03:57:00;11.40;99.90
27559;DHT22;15002;52.028;5.670;2023-02-03T03:59:29;11.60;99.90
27559;DHT22;15002;52.028;5.670;2023-02-03T04:01:56;11.70;99.90
27559;DHT22;15002;52.028;5.670;2023-02-03T04:04:24;11.50;99.90
27559;DHT22;15002;52.028;5.670;2023-02-03T04:06:52;11.50;99.90
27559;DHT22;15002;52.028;5.670;2023-02-03T04:09:19;11.60;99.90
27559;DHT22;15002;52.028;5.670;2023-02-03T04:11:45;11.60;99.90
27559;DHT22;15002;52.028;5.670;2023-02-03T04:14:26;11.40;99.90
27559;DHT22;15002;52.028;5.670;2023-02-03T04:16:52;11.40;99.90
27559;DHT22;15002;52.028;5.670;2023-02-03T04:19:18;11.50;99.90
27559;DHT22;15002;52.028;5.670;2023-02-03T04:21:43;11.50;99.90
27559;DHT22;15002;52.028;5.670;2023-02-03T04:24:09;11.40;99.90
27559;DHT22;15002;52.028;5.670;2023-02-03T04:26:36;11.40;99.90
27559;DHT22;15002;52.028;5.670;2023-02-03T04:29:02;11.30;99.90
27559;DHT22;15002;52.028;5.670;2023-02-03T04:31:28;11.20;99.90
27559;DHT22;15002;52.028;5.670;2023-02-03T04:33:54;11.40;99.90
27559;DHT22;15002;52.028;5.670;2023-02-03T04:36:20;11.70;99.90
27559;DHT22;15002;52.028;5.670;2023-02-03T04:38:47;11.60;99.90
27559;DHT22;15002;52.028;5.670;2023-02-03T04:41:14;11.60;99.90
27559;DHT22;15002;52.028;5.670;2023-02-03T04:43:39;11.60;99.90
27559;DHT22;15002;52.028;5.670;2023-02-03T04:46:05;11.50;99.90
27559;DHT22;15002;52.028;5.670;2023-02-03T04:48:30;11.60;99.90
27559;DHT22;15002;52.028;5.670;2023-02-03T04:51:03;11.50;99.90
27559;DHT22;15002;52.028;5.670;2023-02-03T04:53:30;11.50;99.90
27559;DHT22;15002;52.028;5.670;2023-02-03T04:55:56;11.60;99.90
27559;DHT22;15002;52.028;5.670;2023-02-03T04:58:22;11.70;99.90
27559;DHT22;15002;52.028;5.670;2023-02-03T05:00:47;11.70;99.90
27559;DHT22;15002;52.028;5.670;2023-02-03T05:03:14;11.70;99.90
27559;DHT22;15002;52.028;5.670;2023-02-03T05:05:39;11.70;99.90
27559;DHT22;15002;52.028;5.670;2023-02-03T05:08:05;11.60;99.90
27559;DHT22;15002;52.028;5.670;2023-02-03T05:10:31;11.70;99.90
27559;DHT22;15002;52.028;5.670;2023-02-03T05:12:56;11.70;99.90
27559;DHT22;15002;52.028;5.670;2023-02-03T05:15:22;11.80;99.90
27559;DHT22;15002;52.028;5.670;2023-02-03T05:17:51;11.70;99.90
27559;DHT22;15002;52.028;5.670;2023-02-03T05:20:17;11.70;99.90
27559;DHT22;15002;52.028;5.670;2023-02-03T05:22:42;11.60;99.90
27559;DHT22;15002;52.028;5.670;2023-02-03T05:25:08;11.70;99.90
27559;DHT22;15002;52.028;5.670;2023-02-03T05:27:36;11.50;99.90
27559;DHT22;15002;52.028;5.670;2023-02-03T05:30:02;11.50;99.90
27559;DHT22;15002;52.028;5.670;2023-02-03T05:32:28;11.70;99.90
27559;DHT22;15002;52.028;5.670;2023-02-03T05:34:53;11.60;99.90
27559;DHT22;15002;52.028;5.670;2023-02-03T05:37:19;12.00;99.90
27559;DHT22;15002;52.028;5.670;2023-02-03T05:39:45;11.70;99.90
27559;DHT22;15002;52.028;5.670;2023-02-03T05:42:10;11.80;99.90
27559;DHT22;15002;52.028;5.670;2023-02-03T05:44:36;11.80;99.90
27559;DHT22;15002;52.028;5.670;2023-02-03T05:47:02;11.70;99.90
27559;DHT22;15002;52.028;5.670;2023-02-03T05:49:27;11.80;99.90
27559;DHT22;15002;52.028;5.670;2023-02-03T05:51:54;11.60;99.90
27559;DHT22;15002;52.028;5.670;2023-02-03T05:54:20;11.80;99.90
27559;DHT22;15002;52.028;5.670;2023-02-03T05:56:47;11.80;99.90
27559;DHT22;15002;52.028;5.670;2023-02-03T05:59:13;11.70;99.90
27559;DHT22;15002;52.028;5.670;2023-02-03T06:01:38;11.70;99.90
27559;DHT22;15002;52.028;5.670;2023-02-03T06:04:04;11.70;99.90
27559;DHT22;15002;52.028;5.670;2023-02-03T06:06:30;11.70;99.90
27559;DHT22;15002;52.028;5.670;2023-02-03T06:09:04;11.90;99.90
27559;DHT22;15002;52.028;5.670;2023-02-03T06:11:31;11.70;99.90
27559;DHT22;15002;52.028;5.670;2023-02-03T06:13:58;11.80;99.90
27559;DHT22;15002;52.028;5.670;2023-02-03T06:16:24;11.80;99.90
27559;DHT22;15002;52.028;5.670;2023-02-03T06:18:52;11.70;99.90
27559;DHT22;15002;52.028;5.670;2023-02-03T06:21:18;11.80;99.90
27559;DHT22;15002;52.028;5.670;2023-02-03T06:23:44;11.60;99.90
27559;DHT22;15002;52.028;5.670;2023-02-03T06:26:10;11.80;99.90
27559;DHT22;15002;52.028;5.670;2023-02-03T06:28:35;11.80;99.90
27559;DHT22;15002;52.028;5.670;2023-02-03T06:31:03;11.80;99.90
27559;DHT22;15002;52.028;5.670;2023-02-03T06:33:29;11.70;99.90
27559;DHT22;15002;52.028;5.670;2023-02-03T06:35:55;11.70;99.90
27559;DHT22;15002;52.028;5.670;2023-02-03T06:38:20;11.90;99.90
27559;DHT22;15002;52.028;5.670;2023-02-03T06:40:46;12.10;99.90
27559;DHT22;15002;52.028;5.670;2023-02-03T06:43:12;12.10;99.90
27559;DHT22;15002;52.028;5.670;2023-02-03T06:45:38;12.10;99.90
27559;DHT22;15002;52.028;5.670;2023-02-03T06:48:04;12.10;99.90
27559;DHT22;15002;52.028;5.670;2023-02-03T06:50:29;12.10;99.90
27559;DHT22;15002;52.028;5.670;2023-02-03T06:52:55;11.90;99.90
27559;DHT22;15002;52.028;5.670;2023-02-03T06:55:21;12.00;99.90
27559;DHT22;15002;52.028;5.670;2023-02-03T06:57:47;12.00;99.90
27559;DHT22;15002;52.028;5.670;2023-02-03T07:00:15;12.00;99.90
27559;DHT22;15002;52.028;5.670;2023-02-03T07:02:41;12.00;99.90
27559;DHT22;15002;52.028;5.670;2023-02-03T07:05:07;12.00;99.90
27559;DHT22;15002;52.028;5.670;2023-02-03T07:07:33;11.90;99.90
27559;DHT22;15002;52.028;5.670;2023-02-03T07:10:00;12.00;99.90
27559;DHT22;15002;52.028;5.670;2023-02-03T07:12:26;12.10;99.90
27559;DHT22;15002;52.028;5.670;2023-02-03T07:14:52;12.00;99.90
27559;DHT22;15002;52.028;5.670;2023-02-03T07:17:18;12.10;99.90
27559;DHT22;15002;52.028;5.670;2023-02-03T07:19:43;12.10;99.90
27559;DHT22;15002;52.028;5.670;2023-02-03T07:22:10;12.20;99.90
27559;DHT22;15002;52.028;5.670;2023-02-03T07:24:35;12.00;99.90
27559;DHT22;15002;52.028;5.670;2023-02-03T07:27:01;11.90;99.90
27559;DHT22;15002;52.028;5.670;2023-02-03T07:29:27;12.10;99.90
27559;DHT22;15002;52.028;5.670;2023-02-03T07:31:52;12.10;99.90
27559;DHT22;15002;52.028;5.670;2023-02-03T07:34:18;12.10;99.90
27559;DHT22;15002;52.028;5.670;2023-02-03T07:36:44;12.00;99.90
27559;DHT22;15002;52.028;5.670;2023-02-03T07:39:09;12.30;99.90
27559;DHT22;15002;52.028;5.670;2023-02-03T07:41:35;12.30;99.90
27559;DHT22;15002;52.028;5.670;2023-02-03T07:44:00;12.40;99.90
27559;DHT22;15002;52.028;5.670;2023-02-03T07:46:26;12.40;99.90
27559;DHT22;15002;52.028;5.670;2023-02-03T07:48:52;12.30;99.90
27559;DHT22;15002;52.028;5.670;2023-02-03T07:51:18;12.30;99.90
27559;DHT22;15002;52.028;5.670;2023-02-03T07:53:44;12.30;99.90
27559;DHT22;15002;52.028;5.670;2023-02-03T07:56:10;12.40;99.90
27559;DHT22;15002;52.028;5.670;2023-02-03T07:58:36;12.10;99.90
27559;DHT22;15002;52.028;5.670;2023-02-03T08:01:09;12.10;99.90
27559;DHT22;15002;52.028;5.670;2023-02-03T08:03:35;12.20;99.90
27559;DHT22;15002;52.028;5.670;2023-02-03T08:06:01;12.40;99.90
27559;DHT22;15002;52.028;5.670;2023-02-03T08:08:26;12.30;99.90
27559;DHT22;15002;52.028;5.670;2023-02-03T08:10:54;12.50;99.90
27559;DHT22;15002;52.028;5.670;2023-02-03T08:13:20;12.50;99.90
27559;DHT22;15002;52.028;5.670;2023-02-03T08:15:47;12.70;99.90
27559;DHT22;15002;52.028;5.670;2023-02-03T08:18:12;12.50;99.90
27559;DHT22;15002;52.028;5.670;2023-02-03T08:20:38;12.60;99.90
27559;DHT22;15002;52.028;5.670;2023-02-03T08:23:04;12.40;99.90
27559;DHT22;15002;52.028;5.670;2023-02-03T08:25:30;12.40;99.90
27559;DHT22;15002;52.028;5.670;2023-02-03T08:27:55;12.40;99.90
27559;DHT22;15002;52.028;5.670;2023-02-03T08:30:21;12.40;99.90
27559;DHT22;15002;52.028;5.670;2023-02-03T08:32:47;12.40;99.90
27559;DHT22;15002;52.028;5.670;2023-02-03T08:35:13;12.50;99.90
27559;DHT22;15002;52.028;5.670;2023-02-03T08:37:38;12.30;99.90
27559;DHT22;15002;52.028;5.670;2023-02-03T08:40:04;12.40;99.90
27559;DHT22;15002;52.028;5.670;2023-02-03T08:42:30;12.50;99.90
27559;DHT22;15002;52.028;5.670;2023-02-03T08:44:56;12.30;99.90
27559;DHT22;15002;52.028;5.670;2023-02-03T08:47:22;12.30;99.90
27559;DHT22;15002;52.028;5.670;2023-02-03T08:49:48;12.50;99.90
27559;DHT22;15002;52.028;5.670;2023-02-03T08:52:14;12.60;99.90
27559;DHT22;15002;52.028;5.670;2023-02-03T08:54:40;12.50;99.90
27559;DHT22;15002;52.028;5.670;2023-02-03T08:57:06;12.50;99.90
27559;DHT22;15002;52.028;5.670;2023-02-03T08:59:32;12.60;99.90
27559;DHT22;15002;52.028;5.670;2023-02-03T09:02:04;12.70;99.90
27559;DHT22;15002;52.028;5.670;2023-02-03T09:04:30;12.80;99.90
27559;DHT22;15002;52.028;5.670;2023-02-03T09:06:58;12.70;99.90
27559;DHT22;15002;52.028;5.670;2023-02-03T09:09:24;12.70;99.90
27559;DHT22;15002;52.028;5.670;2023-02-03T09:11:51;12.70;99.90
27559;DHT22;15002;52.028;5.670;2023-02-03T09:14:17;12.50;99.90
27559;DHT22;15002;52.028;5.670;2023-02-03T09:16:43;12.60;99.90
27559;DHT22;15002;52.028;5.670;2023-02-03T09:19:08;12.50;99.90
27559;DHT22;15002;52.028;5.670;2023-02-03T09:21:34;12.90;99.90
27559;DHT22;15002;52.028;5.670;2023-02-03T09:24:01;12.80;99.90
27559;DHT22;15002;52.028;5.670;2023-02-03T09:26:27;12.90;99.90
27559;DHT22;15002;52.028;5.670;2023-02-03T09:28:53;13.00;99.90
27559;DHT22;15002;52.028;5.670;2023-02-03T09:31:18;13.00;99.90
27559;DHT22;15002;52.028;5.670;2023-02-03T09:33:45;13.20;99.90
27559;DHT22;15002;52.028;5.670;2023-02-03T09:36:11;13.10;99.90
27559;DHT22;15002;52.028;5.670;2023-02-03T09:38:38;13.20;99.90
27559;DHT22;15002;52.028;5.670;2023-02-03T09:46:24;13.20;99.90
27559;DHT22;15002;52.028;5.670;2023-02-03T09:49:02;13.20;99.90
27559;DHT22;15002;52.028;5.670;2023-02-03T09:51:33;13.20;99.90
27559;DHT22;15002;52.028;5.670;2023-02-03T09:54:15;13.30;99.90
27559;DHT22;15002;52.028;5.670;2023-02-03T09:56:43;13.20;99.90
27559;DHT22;15002;52.028;5.670;2023-02-03T09:59:19;13.30;99.90
27559;DHT22;15002;52.028;5.670;2023-02-03T10:02:12;13.10;99.90
27559;DHT22;15002;52.028;5.670;2023-02-03T10:05:06;13.20;99.90
27559;DHT22;15002;52.028;5.670;2023-02-03T10:07:41;13.40;99.90
27559;DHT22;15002;52.028;5.670;2023-02-03T10:13:25;13.30;99.90
27559;DHT22;15002;52.028;5.670;2023-02-03T10:16:12;13.30;99.90
27559;DHT22;15002;52.028;5.670;2023-02-03T10:18:49;13.40;99.90
27559;DHT22;15002;52.028;5.670;2023-02-03T10:21:30;13.40;99.90
27559;DHT22;15002;52.028;5.670;2023-02-03T10:23:58;13.40;99.90
27559;DHT22;15002;52.028;5.670;2023-02-03T10:26:26;13.50;99.90
27559;DHT22;15002;52.028;5.670;2023-02-03T10:28:56;13.40;99.90
27559;DHT22;15002;52.028;5.670;2023-02-03T10:31:24;13.60;99.90
27559;DHT22;15002;52.028;5.670;2023-02-03T10:33:59;13.50;99.90
27559;DHT22;15002;52.028;5.670;2023-02-03T10:41:48;13.40;99.90
27559;DHT22;15002;52.028;5.670;2023-02-03T10:44:14;13.40;99.90
27559;DHT22;15002;52.028;5.670;2023-02-03T10:46:40;13.60;99.90
27559;DHT22;15002;52.028;5.670;2023-02-03T10:49:09;13.60;99.90
27559;DHT22;15002;52.028;5.670;2023-02-03T10:51:40;13.60;99.90
27559;DHT22;15002;52.028;5.670;2023-02-03T10:54:31;13.50;99.90
27559;DHT22;15002;52.028;5.670;2023-02-03T10:57:02;13.70;99.90
27559;DHT22;15002;52.028;5.670;2023-02-03T10:59:32;13.60;99.90
27559;DHT22;15002;52.028;5.670;2023-02-03T11:01:58;13.50;99.90
27559;DHT22;15002;52.028;5.670;2023-02-03T11:04:31;13.50;99.90
27559;DHT22;15002;52.028;5.670;2023-02-03T11:07:03;13.50;99.90
27559;DHT22;15002;52.028;5.670;2023-02-03T11:09:37;13.60;99.90
27559;DHT22;15002;52.028;5.670;2023-02-03T11:24:23;13.60;99.90
27559;DHT22;15002;52.028;5.670;2023-02-03T11:26:59;13.60;99.90
27559;DHT22;15002;52.028;5.670;2023-02-03T11:29:34;13.40;99.90
27559;DHT22;15002;52.028;5.670;2023-02-03T11:32:05;13.50;99.90
27559;DHT22;15002;52.028;5.670;2023-02-03T11:34:36;13.70;99.90
27559;DHT22;15002;52.028;5.670;2023-02-03T11:37:26;13.70;99.90
27559;DHT22;15002;52.028;5.670;2023-02-03T11:42:33;13.80;99.90
27559;DHT22;15002;52.028;5.670;2023-02-03T11:48:00;13.70;99.90
27559;DHT22;15002;52.028;5.670;2023-02-03T11:50:31;13.80;99.90
27559;DHT22;15002;52.028;5.670;2023-02-03T11:55:53;13.80;99.90
27559;DHT22;15002;52.028;5.670;2023-02-03T11:59:21;13.70;99.90
27559;DHT22;15002;52.028;5.670;2023-02-03T12:04:28;13.90;99.90
27559;DHT22;15002;52.028;5.670;2023-02-03T12:23:16;13.60;99.90
27559;DHT22;15002;52.028;5.670;2023-02-03T12:26:02;13.60;99.90
27559;DHT22;15002;52.028;5.670;2023-02-03T12:36:34;13.50;99.90
27559;DHT22;15002;52.028;5.670;2023-02-03T12:42:05;13.50;99.90
27559;DHT22;15002;52.028;5.670;2023-02-03T12:44:42;13.40;99.90
27559;DHT22;15002;52.028;5.670;2023-02-03T12:49:55;13.40;99.90
27559;DHT22;15002;52.028;5.670;2023-02-03T12:52:24;13.30;99.90
27559;DHT22;15002;52.028;5.670;2023-02-03T12:58:05;13.20;99.90
27559;DHT22;15002;52.028;5.670;2023-02-03T13:06:06;12.80;99.90
27559;DHT22;15002;52.028;5.670;2023-02-03T13:08:53;12.70;99.90
27559;DHT22;15002;52.028;5.670;2023-02-03T13:11:40;12.90;99.90
27559;DHT22;15002;52.028;5.670;2023-02-03T13:19:51;13.00;99.90
27559;DHT22;15002;52.028;5.670;2023-02-03T13:22:17;12.90;99.90
27559;DHT22;15002;52.028;5.670;2023-02-03T13:24:48;12.90;99.90
27559;DHT22;15002;52.028;5.670;2023-02-03T13:30:16;12.90;99.90
27559;DHT22;15002;52.028;5.670;2023-02-03T13:41:55;13.00;99.90
27559;DHT22;15002;52.028;5.670;2023-02-03T13:44:32;13.00;99.90
27559;DHT22;15002;52.028;5.670;2023-02-03T13:46:58;13.00;99.90
27559;DHT22;15002;52.028;5.670;2023-02-03T13:49:32;13.00;99.90
27559;DHT22;15002;52.028;5.670;2023-02-03T13:51:59;13.00;99.90
27559;DHT22;15002;52.028;5.670;2023-02-03T13:54:34;13.20;99.90
27559;DHT22;15002;52.028;5.670;2023-02-03T13:57:03;13.20;99.90
27559;DHT22;15002;52.028;5.670;2023-02-03T14:10:15;13.20;99.90
27559;DHT22;15002;52.028;5.670;2023-02-03T14:20:42;13.20;99.90
27559;DHT22;15002;52.028;5.670;2023-02-03T14:23:40;13.10;99.90
27559;DHT22;15002;52.028;5.670;2023-02-03T14:26:15;13.20;99.90
27559;DHT22;15002;52.028;5.670;2023-02-03T14:28:44;13.20;99.90
27559;DHT22;15002;52.028;5.670;2023-02-03T14:31:13;13.20;99.90
27559;DHT22;15002;52.028;5.670;2023-02-03T14:42:28;13.10;99.90
27559;DHT22;15002;52.028;5.670;2023-02-03T14:45:28;13.10;99.90
27559;DHT22;15002;52.028;5.670;2023-02-03T14:48:28;13.20;99.90
27559;DHT22;15002;52.028;5.670;2023-02-03T14:57:01;12.90;99.90
27559;DHT22;15002;52.028;5.670;2023-02-03T15:00:24;12.90;99.90
27559;DHT22;15002;52.028;5.670;2023-02-03T15:11:22;13.10;99.90
27559;DHT22;15002;52.028;5.670;2023-02-03T15:13:48;13.00;99.90
27559;DHT22;15002;52.028;5.670;2023-02-03T15:16:18;12.90;99.90
27559;DHT22;15002;52.028;5.670;2023-02-03T15:18:44;12.80;99.90
27559;DHT22;15002;52.028;5.670;2023-02-03T15:21:18;12.80;99.90
27559;DHT22;15002;52.028;5.670;2023-02-03T15:23:45;12.80;99.90
27559;DHT22;15002;52.028;5.670;2023-02-03T15:26:25;12.80;99.90
27559;DHT22;15002;52.028;5.670;2023-02-03T15:28:59;12.70;99.90
27559;DHT22;15002;52.028;5.670;2023-02-03T15:31:37;12.80;99.90
27559;DHT22;15002;52.028;5.670;2023-02-03T15:34:36;12.80;99.90
27559;DHT22;15002;52.028;5.670;2023-02-03T15:37:15;12.80;99.90
27559;DHT22;15002;52.028;5.670;2023-02-03T15:42:38;12.70;99.90
27559;DHT22;15002;52.028;5.670;2023-02-03T15:45:27;12.70;99.90
27559;DHT22;15002;52.028;5.670;2023-02-03T15:48:02;12.80;99.90
27559;DHT22;15002;52.028;5.670;2023-02-03T15:53:29;12.70;99.90
27559;DHT22;15002;52.028;5.670;2023-02-03T15:55:56;12.70;99.90
27559;DHT22;15002;52.028;5.670;2023-02-03T15:58:28;12.70;99.90
27559;DHT22;15002;52.028;5.670;2023-02-03T16:00:59;12.70;99.90
27559;DHT22;15002;52.028;5.670;2023-02-03T16:03:39;12.70;99.90
27559;DHT22;15002;52.028;5.670;2023-02-03T16:06:08;12.70;99.90
27559;DHT22;15002;52.028;5.670;2023-02-03T16:08:42;12.80;99.90
27559;DHT22;15002;52.028;5.670;2023-02-03T16:11:33;12.80;99.90
27559;DHT22;15002;52.028;5.670;2023-02-03T16:14:04;12.70;99.90
27559;DHT22;15002;52.028;5.670;2023-02-03T16:16:49;12.70;99.90
27559;DHT22;15002;52.028;5.670;2023-02-03T16:19:22;12.70;99.90
27559;DHT22;15002;52.028;5.670;2023-02-03T16:24:43;12.60;99.90
27559;DHT22;15002;52.028;5.670;2023-02-03T16:33:12;12.40;99.90
27559;DHT22;15002;52.028;5.670;2023-02-03T16:36:00;12.40;99.90
27559;DHT22;15002;52.028;5.670;2023-02-03T16:38:48;12.30;99.90
27559;DHT22;15002;52.028;5.670;2023-02-03T16:41:32;12.30;99.90
27559;DHT22;15002;52.028;5.670;2023-02-03T16:44:17;12.40;99.90
27559;DHT22;15002;52.028;5.670;2023-02-03T16:47:02;12.40;99.90
27559;DHT22;15002;52.028;5.670;2023-02-03T16:49:46;12.30;99.90
27559;DHT22;15002;52.028;5.670;2023-02-03T16:52:31;12.40;99.90
27559;DHT22;15002;52.028;5.670;2023-02-03T16:54:57;12.30;99.90
27559;DHT22;15002;52.028;5.670;2023-02-03T16:57:23;12.20;99.90
27559;DHT22;15002;52.028;5.670;2023-02-03T16:59:49;12.40;99.90
27559;DHT22;15002;52.028;5.670;2023-02-03T17:02:14;12.40;99.90
27559;DHT22;15002;52.028;5.670;2023-02-03T17:04:40;12.30;99.90
27559;DHT22;15002;52.028;5.670;2023-02-03T17:07:06;12.30;99.90
27559;DHT22;15002;52.028;5.670;2023-02-03T17:09:32;12.20;99.90
27559;DHT22;15002;52.028;5.670;2023-02-03T17:12:01;12.20;99.90
27559;DHT22;15002;52.028;5.670;2023-02-03T17:14:27;12.10;99.90
27559;DHT22;15002;52.028;5.670;2023-02-03T17:16:53;12.10;99.90
27559;DHT22;15002;52.028;5.670;2023-02-03T17:19:19;12.00;99.90
27559;DHT22;15002;52.028;5.670;2023-02-03T17:21:44;12.00;99.90
27559;DHT22;15002;52.028;5.670;2023-02-03T17:24:12;12.00;99.90
27559;DHT22;15002;52.028;5.670;2023-02-03T17:26:38;12.00;99.90
27559;DHT22;15002;52.028;5.670;2023-02-03T17:29:03;11.90;99.90
27559;DHT22;15002;52.028;5.670;2023-02-03T17:31:29;12.00;99.90
27559;DHT22;15002;52.028;5.670;2023-02-03T17:33:55;11.90;99.90
27559;DHT22;15002;52.028;5.670;2023-02-03T17:36:22;11.90;99.90
27559;DHT22;15002;52.028;5.670;2023-02-03T17:38:53;12.00;99.90
27559;DHT22;15002;52.028;5.670;2023-02-03T17:41:22;11.90;99.90
27559;DHT22;15002;52.028;5.670;2023-02-03T17:43:48;12.00;99.90
27559;DHT22;15002;52.028;5.670;2023-02-03T17:46:17;11.90;99.90
27559;DHT22;15002;52.028;5.670;2023-02-03T17:48:43;11.90;99.90
27559;DHT22;15002;52.028;5.670;2023-02-03T17:51:20;11.70;99.90
27559;DHT22;15002;52.028;5.670;2023-02-03T17:53:47;11.80;99.90
27559;DHT22;15002;52.028;5.670;2023-02-03T17:56:18;11.80;99.90
27559;DHT22;15002;52.028;5.670;2023-02-03T17:58:45;11.80;99.90
27559;DHT22;15002;52.028;5.670;2023-02-03T18:01:16;11.80;99.90
27559;DHT22;15002;52.028;5.670;2023-02-03T18:03:47;11.80;99.90
27559;DHT22;15002;52.028;5.670;2023-02-03T18:06:14;11.80;99.90
27559;DHT22;15002;52.028;5.670;2023-02-03T18:08:41;11.70;99.90
27559;DHT22;15002;52.028;5.670;2023-02-03T18:11:07;11.70;99.90
27559;DHT22;15002;52.028;5.670;2023-02-03T18:13:38;11.60;99.90
27559;DHT22;15002;52.028;5.670;2023-02-03T18:16:06;11.60;99.90
27559;DHT22;15002;52.028;5.670;2023-02-03T18:18:32;11.60;99.90
27559;DHT22;15002;52.028;5.670;2023-02-03T18:21:04;11.70;99.90
27559;DHT22;15002;52.028;5.670;2023-02-03T18:23:31;11.60;99.90
27559;DHT22;15002;52.028;5.670;2023-02-03T18:25:57;11.60;99.90
27559;DHT22;15002;52.028;5.670;2023-02-03T18:28:23;11.50;99.90
27559;DHT22;15002;52.028;5.670;2023-02-03T18:30:49;11.50;99.90
27559;DHT22;15002;52.028;5.670;2023-02-03T18:33:16;11.50;99.90
27559;DHT22;15002;52.028;5.670;2023-02-03T18:35:42;11.40;99.90
27559;DHT22;15002;52.028;5.670;2023-02-03T18:38:08;11.50;99.90